sensor_id;sensor_type;location;lat;lon;timestamp;temperature;humidity
67868;SHT31;54672;46.096;14.470;2023-06-14T00:00:10;16.92;82.81
67868;SHT31;54672;46.096;14.470;2023-06-14T00:02:38;16.86;83.11
67868;SHT31;54672;46.096;14.470;2023-06-14T00:05:05;16.69;83.69
67868;SHT31;54672;46.096;14.470;2023-06-14T00:07:38;16.48;84.52
67868;SHT31;54672;46.096;14.470;2023-06-14T00:10:08;16.34;85.14
67868;SHT31;54672;46.096;14.470;2023-06-14T00:12:33;16.24;85.87
67868;SHT31;54672;46.096;14.470;2023-06-14T00:14:59;16.18;86.36
67868;SHT31;54672;46.096;14.470;2023-06-14T00:17:27;16.17;86.65
67868;SHT31;54672;46.096;14.470;2023-06-14T00:19:56;16.14;86.80
67868;SHT31;54672;46.096;14.470;2023-06-14T00:22:22;16.11;86.79
67868;SHT31;54672;46.096;14.470;2023-06-14T00:24:49;16.08;87.27
67868;SHT31;54672;46.096;14.470;2023-06-14T00:27:15;16.00;87.58
67868;SHT31;54672;46.096;14.470;2023-06-14T00:29:40;15.98;87.40
67868;SHT31;54672;46.096;14.470;2023-06-14T00:32:06;15.98;87.38
67868;SHT31;54672;46.096;14.470;2023-06-14T00:34:32;16.00;87.28
67868;SHT31;54672;46.096;14.470;2023-06-14T00:36:58;15.98;87.42
67868;SHT31;54672;46.096;14.470;2023-06-14T00:39:23;15.94;87.30
67868;SHT31;54672;46.096;14.470;2023-06-14T00:41:48;15.96;87.39
67868;SHT31;54672;46.096;14.470;2023-06-14T00:44:16;15.89;87.50
67868;SHT31;54672;46.096;14.470;2023-06-14T00:46:42;15.87;87.16
67868;SHT31;54672;46.096;14.470;2023-06-14T00:49:08;15.89;86.97
67868;SHT31;54672;46.096;14.470;2023-06-14T00:51:33;15.90;86.96
67868;SHT31;54672;46.096;14.470;2023-06-14T00:53:59;15.90;86.92
67868;SHT31;54672;46.096;14.470;2023-06-14T00:56:24;15.89;87.03
67868;SHT31;54672;46.096;14.470;2023-06-14T00:58:50;15.84;87.44
67868;SHT31;54672;46.096;14.470;2023-06-14T01:01:16;15.83;88.00
67868;SHT31;54672;46.096;14.470;2023-06-14T01:03:41;15.83;88.18
67868;SHT31;54672;46.096;14.470;2023-06-14T01:06:30;15.83;87.69
67868;SHT31;54672;46.096;14.470;2023-06-14T01:09:08;15.86;87.82
67868;SHT31;54672;46.096;14.470;2023-06-14T01:11:51;15.91;87.74
67868;SHT31;54672;46.096;14.470;2023-06-14T01:14:20;15.91;87.76
67868;SHT31;54672;46.096;14.470;2023-06-14T01:16:46;15.94;87.63
67868;SHT31;54672;46.096;14.470;2023-06-14T01:19:14;16.00;87.61
67868;SHT31;54672;46.096;14.470;2023-06-14T01:21:40;16.00;87.65
67868;SHT31;54672;46.096;14.470;2023-06-14T01:24:07;16.05;87.47
67868;SHT31;54672;46.096;14.470;2023-06-14T01:26:34;16.05;87.25
67868;SHT31;54672;46.096;14.470;2023-06-14T01:29:01;16.07;87.12
67868;SHT31;54672;46.096;14.470;2023-06-14T01:31:27;16.05;87.57
67868;SHT31;54672;46.096;14.470;2023-06-14T01:33:55;15.91;87.88
67868;SHT31;54672;46.096;14.470;2023-06-14T01:36:20;15.89;88.05
67868;SHT31;54672;46.096;14.470;2023-06-14T01:38:48;15.84;88.36
67868;SHT31;54672;46.096;14.470;2023-06-14T01:41:16;15.77;88.93
67868;SHT31;54672;46.096;14.470;2023-06-14T01:43:44;15.70;89.18
67868;SHT31;54672;46.096;14.470;2023-06-14T01:46:11;15.69;89.48
67868;SHT31;54672;46.096;14.470;2023-06-14T01:48:38;15.64;89.69
67868;SHT31;54672;46.096;14.470;2023-06-14T01:51:03;15.69;89.74
67868;SHT31;54672;46.096;14.470;2023-06-14T01:53:29;15.69;89.65
67868;SHT31;54672;46.096;14.470;2023-06-14T01:55:54;15.69;89.45
67868;SHT31;54672;46.096;14.470;2023-06-14T01:58:20;15.76;88.84
67868;SHT31;54672;46.096;14.470;2023-06-14T02:00:46;15.76;89.17
67868;SHT31;54672;46.096;14.470;2023-06-14T02:03:12;15.76;89.00
67868;SHT31;54672;46.096;14.470;2023-06-14T02:05:38;15.71;89.33
67868;SHT31;54672;46.096;14.470;2023-06-14T02:08:06;15.70;89.37
67868;SHT31;54672;46.096;14.470;2023-06-14T02:10:32;15.73;89.10
67868;SHT31;54672;46.096;14.470;2023-06-14T02:12:58;15.76;88.90
67868;SHT31;54672;46.096;14.470;2023-06-14T02:15:23;15.73;88.91
67868;SHT31;54672;46.096;14.470;2023-06-14T02:17:49;15.77;88.92
67868;SHT31;54672;46.096;14.470;2023-06-14T02:20:15;15.79;88.73
67868;SHT31;54672;46.096;14.470;2023-06-14T02:22:41;15.80;88.61
67868;SHT31;54672;46.096;14.470;2023-06-14T02:25:07;15.80;88.69
67868;SHT31;54672;46.096;14.470;2023-06-14T02:27:33;15.77;88.80
67868;SHT31;54672;46.096;14.470;2023-06-14T02:29:58;15.80;88.76
67868;SHT31;54672;46.096;14.470;2023-06-14T02:32:24;15.86;88.49
67868;SHT31;54672;46.096;14.470;2023-06-14T02:34:49;15.77;88.72
67868;SHT31;54672;46.096;14.470;2023-06-14T02:37:18;15.67;88.90
67868;SHT31;54672;46.096;14.470;2023-06-14T02:39:43;15.60;89.10
67868;SHT31;54672;46.096;14.470;2023-06-14T02:42:08;15.55;89.68
67868;SHT31;54672;46.096;14.470;2023-06-14T02:44:34;15.53;89.63
67868;SHT31;54672;46.096;14.470;2023-06-14T02:47:00;15.50;89.57
67868;SHT31;54672;46.096;14.470;2023-06-14T02:49:26;15.45;89.73
67868;SHT31;54672;46.096;14.470;2023-06-14T02:51:51;15.38;90.13
67868;SHT31;54672;46.096;14.470;2023-06-14T02:54:17;15.28;90.63
67868;SHT31;54672;46.096;14.470;2023-06-14T02:56:43;15.21;90.62
67868;SHT31;54672;46.096;14.470;2023-06-14T02:59:09;15.12;90.77
67868;SHT31;54672;46.096;14.470;2023-06-14T03:01:35;15.09;90.99
67868;SHT31;54672;46.096;14.470;2023-06-14T03:04:03;15.04;91.02
67868;SHT31;54672;46.096;14.470;2023-06-14T03:06:29;14.99;91.52
67868;SHT31;54672;46.096;14.470;2023-06-14T03:08:58;14.95;91.61
67868;SHT31;54672;46.096;14.470;2023-06-14T03:11:25;14.95;91.97
67868;SHT31;54672;46.096;14.470;2023-06-14T03:13:51;14.88;92.01
67868;SHT31;54672;46.096;14.470;2023-06-14T03:16:17;14.87;92.13
67868;SHT31;54672;46.096;14.470;2023-06-14T03:18:45;14.83;92.31
67868;SHT31;54672;46.096;14.470;2023-06-14T03:21:11;14.81;92.41
67868;SHT31;54672;46.096;14.470;2023-06-14T03:23:36;14.77;92.40
67868;SHT31;54672;46.096;14.470;2023-06-14T03:26:02;14.77;92.53
67868;SHT31;54672;46.096;14.470;2023-06-14T03:28:27;14.73;92.54
67868;SHT31;54672;46.096;14.470;2023-06-14T03:30:52;14.74;92.69
67868;SHT31;54672;46.096;14.470;2023-06-14T03:33:18;14.74;92.77
67868;SHT31;54672;46.096;14.470;2023-06-14T03:35:44;14.75;92.61
67868;SHT31;54672;46.096;14.470;2023-06-14T03:38:09;14.78;92.56
67868;SHT31;54672;46.096;14.470;2023-06-14T03:40:35;14.81;92.52
67868;SHT31;54672;46.096;14.470;2023-06-14T03:43:00;14.77;92.48
67868;SHT31;54672;46.096;14.470;2023-06-14T03:45:25;14.80;92.33
67868;SHT31;54672;46.096;14.470;2023-06-14T03:47:51;14.80;92.34
67868;SHT31;54672;46.096;14.470;2023-06-14T03:50:17;14.85;92.44
67868;SHT31;54672;46.096;14.470;2023-06-14T03:52:43;14.88;92.47
67868;SHT31;54672;46.096;14.470;2023-06-14T03:55:09;14.94;92.32
67868;SHT31;54672;46.096;14.470;2023-06-14T03:57:35;14.92;92.21
67868;SHT31;54672;46.096;14.470;2023-06-14T04:00:00;14.96;91.98
67868;SHT31;54672;46.096;14.470;2023-06-14T04:02:26;14.98;91.81
67868;SHT31;54672;46.096;14.470;2023-06-14T04:04:54;14.84;92.21
67868;SHT31;54672;46.096;14.470;2023-06-14T04:07:20;14.75;92.39
67868;SHT31;54672;46.096;14.470;2023-06-14T04:09:45;14.84;92.34
67868;SHT31;54672;46.096;14.470;2023-06-14T04:12:11;15.01;91.87
67868;SHT31;54672;46.096;14.470;2023-06-14T04:14:37;15.19;91.26
67868;SHT31;54672;46.096;14.470;2023-06-14T04:17:03;15.05;91.27
67868;SHT31;54672;46.096;14.470;2023-06-14T04:19:28;15.05;91.44
67868;SHT31;54672;46.096;14.470;2023-06-14T04:21:53;14.89;91.98
67868;SHT31;54672;46.096;14.470;2023-06-14T04:24:19;14.94;92.07
67868;SHT31;54672;46.096;14.470;2023-06-14T04:26:45;14.85;92.43
67868;SHT31;54672;46.096;14.470;2023-06-14T04:29:13;14.87;92.00
67868;SHT31;54672;46.096;14.470;2023-06-14T04:31:45;14.96;91.63
67868;SHT31;54672;46.096;14.470;2023-06-14T04:34:11;15.05;91.85
67868;SHT31;54672;46.096;14.470;2023-06-14T04:36:42;15.02;91.61
67868;SHT31;54672;46.096;14.470;2023-06-14T04:39:17;15.35;90.75
67868;SHT31;54672;46.096;14.470;2023-06-14T04:41:45;15.49;89.73
67868;SHT31;54672;46.096;14.470;2023-06-14T04:44:12;15.57;89.30
67868;SHT31;54672;46.096;14.470;2023-06-14T04:46:42;16.17;87.08
67868;SHT31;54672;46.096;14.470;2023-06-14T04:49:17;16.32;86.42
67868;SHT31;54672;46.096;14.470;2023-06-14T04:51:43;16.68;85.59
67868;SHT31;54672;46.096;14.470;2023-06-14T04:54:10;17.16;83.91
67868;SHT31;54672;46.096;14.470;2023-06-14T04:56:38;17.24;83.25
67868;SHT31;54672;46.096;14.470;2023-06-14T04:59:03;17.24;82.93
67868;SHT31;54672;46.096;14.470;2023-06-14T05:01:32;17.31;83.06
67868;SHT31;54672;46.096;14.470;2023-06-14T05:03:58;16.99;83.42
67868;SHT31;54672;46.096;14.470;2023-06-14T05:06:24;16.79;83.97
67868;SHT31;54672;46.096;14.470;2023-06-14T05:08:50;17.79;81.47
67868;SHT31;54672;46.096;14.470;2023-06-14T05:11:16;18.21;79.69
67868;SHT31;54672;46.096;14.470;2023-06-14T05:13:42;18.19;79.94
67868;SHT31;54672;46.096;14.470;2023-06-14T05:16:08;19.41;75.37
67868;SHT31;54672;46.096;14.470;2023-06-14T05:18:34;18.05;79.27
67868;SHT31;54672;46.096;14.470;2023-06-14T05:21:00;17.50;82.08
67868;SHT31;54672;46.096;14.470;2023-06-14T05:23:26;16.83;83.95
67868;SHT31;54672;46.096;14.470;2023-06-14T05:25:52;16.55;85.59
67868;SHT31;54672;46.096;14.470;2023-06-14T05:28:17;16.58;85.06
67868;SHT31;54672;46.096;14.470;2023-06-14T05:30:43;16.85;84.26
67868;SHT31;54672;46.096;14.470;2023-06-14T05:33:09;17.24;83.21
67868;SHT31;54672;46.096;14.470;2023-06-14T05:35:34;17.65;81.93
67868;SHT31;54672;46.096;14.470;2023-06-14T05:37:59;17.44;81.48
67868;SHT31;54672;46.096;14.470;2023-06-14T05:40:25;17.71;81.54
67868;SHT31;54672;46.096;14.470;2023-06-14T05:42:50;17.20;82.46
67868;SHT31;54672;46.096;14.470;2023-06-14T05:45:16;17.79;81.60
67868;SHT31;54672;46.096;14.470;2023-06-14T05:47:42;17.88;81.38
67868;SHT31;54672;46.096;14.470;2023-06-14T05:50:07;16.97;83.95
67868;SHT31;54672;46.096;14.470;2023-06-14T05:52:34;18.30;80.39
67868;SHT31;54672;46.096;14.470;2023-06-14T05:54:59;20.86;72.47
67868;SHT31;54672;46.096;14.470;2023-06-14T05:57:25;20.72;70.98
67868;SHT31;54672;46.096;14.470;2023-06-14T05:59:50;20.47;71.17
67868;SHT31;54672;46.096;14.470;2023-06-14T06:02:16;21.03;70.30
67868;SHT31;54672;46.096;14.470;2023-06-14T06:04:41;20.51;70.53
67868;SHT31;54672;46.096;14.470;2023-06-14T06:07:07;21.49;67.12
67868;SHT31;54672;46.096;14.470;2023-06-14T06:09:32;22.89;63.33
67868;SHT31;54672;46.096;14.470;2023-06-14T06:11:58;23.76;61.97
67868;SHT31;54672;46.096;14.470;2023-06-14T06:14:23;21.98;64.50
67868;SHT31;54672;46.096;14.470;2023-06-14T06:16:49;20.42;69.77
67868;SHT31;54672;46.096;14.470;2023-06-14T06:19:14;19.74;70.92
67868;SHT31;54672;46.096;14.470;2023-06-14T06:21:40;19.56;71.27
67868;SHT31;54672;46.096;14.470;2023-06-14T06:24:06;20.17;71.08
67868;SHT31;54672;46.096;14.470;2023-06-14T06:26:32;19.80;69.29
67868;SHT31;54672;46.096;14.470;2023-06-14T06:28:58;19.39;70.62
67868;SHT31;54672;46.096;14.470;2023-06-14T06:31:23;19.45;71.27
67868;SHT31;54672;46.096;14.470;2023-06-14T06:33:49;19.97;70.31
67868;SHT31;54672;46.096;14.470;2023-06-14T06:36:16;20.56;68.18
67868;SHT31;54672;46.096;14.470;2023-06-14T06:38:42;20.73;67.16
67868;SHT31;54672;46.096;14.470;2023-06-14T06:41:07;20.78;66.54
67868;SHT31;54672;46.096;14.470;2023-06-14T06:43:33;20.81;67.36
67868;SHT31;54672;46.096;14.470;2023-06-14T06:45:58;20.75;68.62
67868;SHT31;54672;46.096;14.470;2023-06-14T06:48:23;21.29;67.05
67868;SHT31;54672;46.096;14.470;2023-06-14T06:50:49;23.41;59.96
67868;SHT31;54672;46.096;14.470;2023-06-14T06:53:14;23.45;58.25
67868;SHT31;54672;46.096;14.470;2023-06-14T06:55:40;23.34;59.02
67868;SHT31;54672;46.096;14.470;2023-06-14T06:58:05;23.48;59.73
67868;SHT31;54672;46.096;14.470;2023-06-14T07:00:31;24.26;58.65
67868;SHT31;54672;46.096;14.470;2023-06-14T07:02:57;26.14;50.99
67868;SHT31;54672;46.096;14.470;2023-06-14T07:05:22;25.71;50.85
67868;SHT31;54672;46.096;14.470;2023-06-14T07:07:48;27.00;49.07
67868;SHT31;54672;46.096;14.470;2023-06-14T07:10:13;27.75;47.47
67868;SHT31;54672;46.096;14.470;2023-06-14T07:12:39;28.40;46.78
67868;SHT31;54672;46.096;14.470;2023-06-14T07:15:08;29.38;45.36
67868;SHT31;54672;46.096;14.470;2023-06-14T07:17:34;30.43;42.88
67868;SHT31;54672;46.096;14.470;2023-06-14T07:19:59;30.24;42.46
67868;SHT31;54672;46.096;14.470;2023-06-14T07:22:26;30.51;41.89
67868;SHT31;54672;46.096;14.470;2023-06-14T07:24:51;30.26;43.49
67868;SHT31;54672;46.096;14.470;2023-06-14T07:27:17;31.59;41.19
67868;SHT31;54672;46.096;14.470;2023-06-14T07:29:42;30.16;42.89
67868;SHT31;54672;46.096;14.470;2023-06-14T07:32:07;27.85;46.95
67868;SHT31;54672;46.096;14.470;2023-06-14T07:34:33;23.98;55.52
67868;SHT31;54672;46.096;14.470;2023-06-14T07:36:58;24.63;54.98
67868;SHT31;54672;46.096;14.470;2023-06-14T07:39:23;27.07;50.77
67868;SHT31;54672;46.096;14.470;2023-06-14T07:41:49;25.23;53.38
67868;SHT31;54672;46.096;14.470;2023-06-14T07:44:15;24.29;55.80
67868;SHT31;54672;46.096;14.470;2023-06-14T07:46:41;24.06;53.14
67868;SHT31;54672;46.096;14.470;2023-06-14T07:49:06;23.66;54.65
67868;SHT31;54672;46.096;14.470;2023-06-14T07:51:32;23.61;55.96
67868;SHT31;54672;46.096;14.470;2023-06-14T07:53:59;22.32;58.74
67868;SHT31;54672;46.096;14.470;2023-06-14T07:56:26;21.55;61.97
67868;SHT31;54672;46.096;14.470;2023-06-14T07:58:51;22.08;60.06
67868;SHT31;54672;46.096;14.470;2023-06-14T08:01:17;21.75;60.64
67868;SHT31;54672;46.096;14.470;2023-06-14T08:03:42;21.81;60.73
67868;SHT31;54672;46.096;14.470;2023-06-14T08:06:08;22.42;59.25
67868;SHT31;54672;46.096;14.470;2023-06-14T08:08:33;22.86;59.18
67868;SHT31;54672;46.096;14.470;2023-06-14T08:10:59;24.13;56.00
67868;SHT31;54672;46.096;14.470;2023-06-14T08:13:24;24.17;53.45
67868;SHT31;54672;46.096;14.470;2023-06-14T08:15:49;24.19;53.49
67868;SHT31;54672;46.096;14.470;2023-06-14T08:18:15;24.58;53.68
67868;SHT31;54672;46.096;14.470;2023-06-14T08:20:41;24.41;53.31
67868;SHT31;54672;46.096;14.470;2023-06-14T08:23:06;25.32;52.47
67868;SHT31;54672;46.096;14.470;2023-06-14T08:25:32;25.94;51.33
67868;SHT31;54672;46.096;14.470;2023-06-14T08:27:58;23.54;57.25
67868;SHT31;54672;46.096;14.470;2023-06-14T08:30:24;22.66;60.02
67868;SHT31;54672;46.096;14.470;2023-06-14T08:32:49;23.07;59.08
67868;SHT31;54672;46.096;14.470;2023-06-14T08:35:15;24.09;56.19
67868;SHT31;54672;46.096;14.470;2023-06-14T08:37:41;22.35;60.74
67868;SHT31;54672;46.096;14.470;2023-06-14T08:40:17;22.00;61.33
67868;SHT31;54672;46.096;14.470;2023-06-14T08:42:44;22.38;58.36
67868;SHT31;54672;46.096;14.470;2023-06-14T08:45:10;22.63;57.99
67868;SHT31;54672;46.096;14.470;2023-06-14T08:47:38;23.42;55.90
67868;SHT31;54672;46.096;14.470;2023-06-14T08:50:06;22.96;59.59
67868;SHT31;54672;46.096;14.470;2023-06-14T08:52:36;22.96;57.94
67868;SHT31;54672;46.096;14.470;2023-06-14T08:55:06;22.63;59.51
67868;SHT31;54672;46.096;14.470;2023-06-14T08:57:36;21.84;61.34
67868;SHT31;54672;46.096;14.470;2023-06-14T09:00:03;22.12;60.45
67868;SHT31;54672;46.096;14.470;2023-06-14T09:02:37;22.53;58.10
67868;SHT31;54672;46.096;14.470;2023-06-14T09:05:03;23.03;56.67
67868;SHT31;54672;46.096;14.470;2023-06-14T09:07:28;22.50;58.11
67868;SHT31;54672;46.096;14.470;2023-06-14T09:10:11;22.48;57.34
67868;SHT31;54672;46.096;14.470;2023-06-14T09:12:37;22.79;57.10
67868;SHT31;54672;46.096;14.470;2023-06-14T09:15:06;22.94;56.84
67868;SHT31;54672;46.096;14.470;2023-06-14T09:17:36;22.91;56.44
67868;SHT31;54672;46.096;14.470;2023-06-14T09:20:06;22.62;57.78
67868;SHT31;54672;46.096;14.470;2023-06-14T09:22:34;22.52;58.61
67868;SHT31;54672;46.096;14.470;2023-06-14T09:25:00;22.52;58.35
67868;SHT31;54672;46.096;14.470;2023-06-14T09:27:27;21.54;59.46
67868;SHT31;54672;46.096;14.470;2023-06-14T09:29:53;21.54;59.83
67868;SHT31;54672;46.096;14.470;2023-06-14T09:32:18;21.75;60.05
67868;SHT31;54672;46.096;14.470;2023-06-14T09:34:45;22.23;58.59
67868;SHT31;54672;46.096;14.470;2023-06-14T09:37:10;22.35;58.87
67868;SHT31;54672;46.096;14.470;2023-06-14T09:39:49;22.09;61.03
67868;SHT31;54672;46.096;14.470;2023-06-14T09:42:18;22.39;58.11
67868;SHT31;54672;46.096;14.470;2023-06-14T09:44:48;21.90;59.71
67868;SHT31;54672;46.096;14.470;2023-06-14T09:47:18;21.63;60.53
67868;SHT31;54672;46.096;14.470;2023-06-14T09:49:44;21.33;61.23
67868;SHT31;54672;46.096;14.470;2023-06-14T09:52:28;21.09;61.53
67868;SHT31;54672;46.096;14.470;2023-06-14T09:54:55;21.07;63.60
67868;SHT31;54672;46.096;14.470;2023-06-14T09:57:22;20.81;63.39
67868;SHT31;54672;46.096;14.470;2023-06-14T09:59:48;20.88;64.15
67868;SHT31;54672;46.096;14.470;2023-06-14T10:02:29;21.04;64.42
67868;SHT31;54672;46.096;14.470;2023-06-14T10:05:08;21.55;62.79
67868;SHT31;54672;46.096;14.470;2023-06-14T10:08:00;21.70;61.40
67868;SHT31;54672;46.096;14.470;2023-06-14T10:10:29;21.51;63.06
67868;SHT31;54672;46.096;14.470;2023-06-14T10:12:55;21.71;62.13
67868;SHT31;54672;46.096;14.470;2023-06-14T10:18:23;22.09;59.00
67868;SHT31;54672;46.096;14.470;2023-06-14T10:21:08;22.16;57.90
67868;SHT31;54672;46.096;14.470;2023-06-14T10:23:41;22.00;60.54
67868;SHT31;54672;46.096;14.470;2023-06-14T10:26:08;22.19;60.34
67868;SHT31;54672;46.096;14.470;2023-06-14T10:28:37;21.85;59.80
67868;SHT31;54672;46.096;14.470;2023-06-14T10:31:03;22.43;58.30
67868;SHT31;54672;46.096;14.470;2023-06-14T10:33:29;21.78;59.70
67868;SHT31;54672;46.096;14.470;2023-06-14T10:36:23;22.01;59.58
67868;SHT31;54672;46.096;14.470;2023-06-14T10:39:00;21.70;60.27
67868;SHT31;54672;46.096;14.470;2023-06-14T10:41:29;21.67;59.76
67868;SHT31;54672;46.096;14.470;2023-06-14T10:46:40;22.60;56.19
67868;SHT31;54672;46.096;14.470;2023-06-14T10:49:05;22.79;56.40
67868;SHT31;54672;46.096;14.470;2023-06-14T10:51:39;22.45;56.76
67868;SHT31;54672;46.096;14.470;2023-06-14T10:54:14;22.38;57.62
67868;SHT31;54672;46.096;14.470;2023-06-14T10:56:47;23.14;55.73
67868;SHT31;54672;46.096;14.470;2023-06-14T10:59:13;23.24;53.47
67868;SHT31;54672;46.096;14.470;2023-06-14T11:01:58;23.79;53.37
67868;SHT31;54672;46.096;14.470;2023-06-14T11:04:56;23.65;52.08
67868;SHT31;54672;46.096;14.470;2023-06-14T11:12:49;23.99;50.65
67868;SHT31;54672;46.096;14.470;2023-06-14T11:15:17;23.47;52.14
67868;SHT31;54672;46.096;14.470;2023-06-14T11:17:52;23.98;51.93
67868;SHT31;54672;46.096;14.470;2023-06-14T11:20:24;23.89;51.84
67868;SHT31;54672;46.096;14.470;2023-06-14T11:22:52;23.08;54.32
67868;SHT31;54672;46.096;14.470;2023-06-14T11:25:17;23.20;51.75
67868;SHT31;54672;46.096;14.470;2023-06-14T11:27:43;23.00;53.99
67868;SHT31;54672;46.096;14.470;2023-06-14T11:30:09;23.63;51.16
67868;SHT31;54672;46.096;14.470;2023-06-14T11:32:38;23.83;51.08
67868;SHT31;54672;46.096;14.470;2023-06-14T11:35:04;23.06;53.18
67868;SHT31;54672;46.096;14.470;2023-06-14T11:37:33;23.21;52.76
67868;SHT31;54672;46.096;14.470;2023-06-14T11:40:01;23.55;52.75
67868;SHT31;54672;46.096;14.470;2023-06-14T11:42:29;23.42;53.03
67868;SHT31;54672;46.096;14.470;2023-06-14T11:44:55;23.17;54.61
67868;SHT31;54672;46.096;14.470;2023-06-14T11:47:21;23.41;53.72
67868;SHT31;54672;46.096;14.470;2023-06-14T11:49:47;23.48;53.72
67868;SHT31;54672;46.096;14.470;2023-06-14T11:52:13;23.21;53.18
67868;SHT31;54672;46.096;14.470;2023-06-14T11:54:39;23.45;52.99
67868;SHT31;54672;46.096;14.470;2023-06-14T11:57:07;24.16;49.38
67868;SHT31;54672;46.096;14.470;2023-06-14T11:59:38;23.89;51.34
67868;SHT31;54672;46.096;14.470;2023-06-14T12:02:04;22.91;54.53
67868;SHT31;54672;46.096;14.470;2023-06-14T12:04:29;23.04;53.90
67868;SHT31;54672;46.096;14.470;2023-06-14T12:06:55;22.79;54.38
67868;SHT31;54672;46.096;14.470;2023-06-14T12:09:23;23.20;52.68
67868;SHT31;54672;46.096;14.470;2023-06-14T12:11:51;24.06;50.89
67868;SHT31;54672;46.096;14.470;2023-06-14T12:14:28;24.09;51.75
67868;SHT31;54672;46.096;14.470;2023-06-14T12:17:04;24.16;50.05
67868;SHT31;54672;46.096;14.470;2023-06-14T12:19:31;24.36;50.02
67868;SHT31;54672;46.096;14.470;2023-06-14T12:21:59;23.52;52.77
67868;SHT31;54672;46.096;14.470;2023-06-14T12:24:28;23.31;54.12
67868;SHT31;54672;46.096;14.470;2023-06-14T12:26:54;23.42;54.04
67868;SHT31;54672;46.096;14.470;2023-06-14T12:29:19;23.59;52.72
67868;SHT31;54672;46.096;14.470;2023-06-14T12:31:45;23.27;53.22
67868;SHT31;54672;46.096;14.470;2023-06-14T12:34:10;23.37;53.47
67868;SHT31;54672;46.096;14.470;2023-06-14T12:36:36;23.57;53.79
67868;SHT31;54672;46.096;14.470;2023-06-14T12:39:07;24.09;52.05
67868;SHT31;54672;46.096;14.470;2023-06-14T12:41:33;24.06;51.67
67868;SHT31;54672;46.096;14.470;2023-06-14T12:43:59;24.34;50.75
67868;SHT31;54672;46.096;14.470;2023-06-14T12:46:26;23.95;50.62
67868;SHT31;54672;46.096;14.470;2023-06-14T12:48:51;24.12;51.35
67868;SHT31;54672;46.096;14.470;2023-06-14T12:51:17;23.89;52.61
67868;SHT31;54672;46.096;14.470;2023-06-14T12:53:42;23.82;51.90
67868;SHT31;54672;46.096;14.470;2023-06-14T12:56:09;24.13;51.95
67868;SHT31;54672;46.096;14.470;2023-06-14T12:58:34;24.78;49.50
67868;SHT31;54672;46.096;14.470;2023-06-14T13:00:59;24.87;50.03
67868;SHT31;54672;46.096;14.470;2023-06-14T13:03:25;24.85;49.17
67868;SHT31;54672;46.096;14.470;2023-06-14T13:05:50;24.54;50.62
67868;SHT31;54672;46.096;14.470;2023-06-14T13:08:16;24.33;50.67
67868;SHT31;54672;46.096;14.470;2023-06-14T13:10:41;24.24;50.34
67868;SHT31;54672;46.096;14.470;2023-06-14T13:13:06;24.08;51.71
67868;SHT31;54672;46.096;14.470;2023-06-14T13:15:32;24.31;50.24
67868;SHT31;54672;46.096;14.470;2023-06-14T13:17:58;24.61;50.58
67868;SHT31;54672;46.096;14.470;2023-06-14T13:20:23;24.67;49.17
67868;SHT31;54672;46.096;14.470;2023-06-14T13:22:48;24.53;50.25
67868;SHT31;54672;46.096;14.470;2023-06-14T13:25:14;24.63;51.18
67868;SHT31;54672;46.096;14.470;2023-06-14T13:27:40;24.44;50.22
67868;SHT31;54672;46.096;14.470;2023-06-14T13:30:06;24.10;52.39
67868;SHT31;54672;46.096;14.470;2023-06-14T13:32:31;24.08;50.85
67868;SHT31;54672;46.096;14.470;2023-06-14T13:34:57;24.33;50.66
67868;SHT31;54672;46.096;14.470;2023-06-14T13:37:23;24.84;50.05
67868;SHT31;54672;46.096;14.470;2023-06-14T13:39:48;25.18;49.15
67868;SHT31;54672;46.096;14.470;2023-06-14T13:42:13;25.46;48.43
67868;SHT31;54672;46.096;14.470;2023-06-14T13:44:39;25.84;47.12
67868;SHT31;54672;46.096;14.470;2023-06-14T13:47:05;25.65;46.63
67868;SHT31;54672;46.096;14.470;2023-06-14T13:49:30;25.54;47.83
67868;SHT31;54672;46.096;14.470;2023-06-14T13:51:56;25.42;47.51
67868;SHT31;54672;46.096;14.470;2023-06-14T13:54:22;25.14;48.26
67868;SHT31;54672;46.096;14.470;2023-06-14T13:56:48;25.36;48.45
67868;SHT31;54672;46.096;14.470;2023-06-14T13:59:13;25.08;49.07
67868;SHT31;54672;46.096;14.470;2023-06-14T14:01:39;24.68;48.48
67868;SHT31;54672;46.096;14.470;2023-06-14T14:04:04;24.74;48.22
67868;SHT31;54672;46.096;14.470;2023-06-14T14:06:30;24.60;47.87
67868;SHT31;54672;46.096;14.470;2023-06-14T14:08:56;24.44;48.55
67868;SHT31;54672;46.096;14.470;2023-06-14T14:11:22;24.20;49.92
67868;SHT31;54672;46.096;14.470;2023-06-14T14:13:47;24.03;50.36
67868;SHT31;54672;46.096;14.470;2023-06-14T14:16:13;24.12;49.89
67868;SHT31;54672;46.096;14.470;2023-06-14T14:18:38;24.30;49.86
67868;SHT31;54672;46.096;14.470;2023-06-14T14:21:04;24.23;48.45
67868;SHT31;54672;46.096;14.470;2023-06-14T14:23:29;24.02;49.57
67868;SHT31;54672;46.096;14.470;2023-06-14T14:25:55;23.83;48.19
67868;SHT31;54672;46.096;14.470;2023-06-14T14:28:20;23.71;49.10
67868;SHT31;54672;46.096;14.470;2023-06-14T14:30:47;23.82;49.13
67868;SHT31;54672;46.096;14.470;2023-06-14T14:33:13;23.99;49.50
67868;SHT31;54672;46.096;14.470;2023-06-14T14:35:44;24.29;49.01
67868;SHT31;54672;46.096;14.470;2023-06-14T14:38:13;24.54;48.09
67868;SHT31;54672;46.096;14.470;2023-06-14T14:40:39;24.46;49.74
67868;SHT31;54672;46.096;14.470;2023-06-14T14:43:05;24.44;48.89
67868;SHT31;54672;46.096;14.470;2023-06-14T14:45:31;24.46;48.42
67868;SHT31;54672;46.096;14.470;2023-06-14T14:47:56;24.49;48.42
67868;SHT31;54672;46.096;14.470;2023-06-14T14:50:22;24.53;48.68
67868;SHT31;54672;46.096;14.470;2023-06-14T14:52:48;24.80;48.90
67868;SHT31;54672;46.096;14.470;2023-06-14T14:55:13;24.75;48.58
67868;SHT31;54672;46.096;14.470;2023-06-14T14:57:39;24.70;48.09
67868;SHT31;54672;46.096;14.470;2023-06-14T15:00:05;25.05;47.36
67868;SHT31;54672;46.096;14.470;2023-06-14T15:02:31;25.38;46.32
67868;SHT31;54672;46.096;14.470;2023-06-14T15:04:56;25.56;44.35
67868;SHT31;54672;46.096;14.470;2023-06-14T15:07:30;25.35;45.89
67868;SHT31;54672;46.096;14.470;2023-06-14T15:09:56;25.18;45.87
67868;SHT31;54672;46.096;14.470;2023-06-14T15:12:21;25.08;45.76
67868;SHT31;54672;46.096;14.470;2023-06-14T15:14:52;25.04;45.77
67868;SHT31;54672;46.096;14.470;2023-06-14T15:17:18;25.04;45.90
67868;SHT31;54672;46.096;14.470;2023-06-14T15:19:47;24.96;47.09
67868;SHT31;54672;46.096;14.470;2023-06-14T15:22:13;24.54;49.11
67868;SHT31;54672;46.096;14.470;2023-06-14T15:24:40;24.40;49.20